createdAt,value
2023-02-24T00:14:31.508Z,17.40
2023-02-24T00:29:34.615Z,21.03
2023-02-24T00:44:38.013Z,23.37
2023-02-24T00:59:40.263Z,12.87
2023-02-24T01:14:45.301Z,13.10
2023-02-24T01:29:50.878Z,11.10
2023-02-24T01:44:52.668Z,17.35
2023-02-24T02:00:02.289Z,12.90
2023-02-24T02:15:07.409Z,20.60
2023-02-24T02:30:44.230Z,13.87
2023-02-24T02:45:56.122Z,15.93
2023-02-24T03:01:03.978Z,16.87
2023-02-24T03:16:06.751Z,10.40
2023-02-24T03:31:20.873Z,9.73
2023-02-24T03:46:23.088Z,11.60
2023-02-24T04:01:52.047Z,19.00
2023-02-24T04:16:54.297Z,10.17
2023-02-24T04:32:06.193Z,11.87
2023-02-24T05:09:50.208Z,4.37
2023-02-24T05:24:52.106Z,7.23
2023-02-24T05:40:00.956Z,6.77
2023-02-24T05:55:06.782Z,9.07
2023-02-24T06:10:10.808Z,11.02
2023-02-24T06:25:12.690Z,9.10
2023-02-24T06:40:18.410Z,8.87
2023-02-24T06:55:26.567Z,11.57
2023-02-24T07:10:29.981Z,11.37
2023-02-24T07:25:35.661Z,5.50
2023-02-24T07:40:38.062Z,10.20
2023-02-24T07:55:40.512Z,7.67
2023-02-24T08:10:47.599Z,10.33
2023-02-24T08:25:49.527Z,9.27
2023-02-24T08:40:54.898Z,10.73
2023-02-24T08:55:59.445Z,8.80
2023-02-24T09:11:08.157Z,9.90
2023-02-24T09:26:11.394Z,4.23
2023-02-24T09:41:33.096Z,5.47
2023-02-24T09:56:42.767Z,6.93
2023-02-24T10:12:04.265Z,9.97
2023-02-24T10:27:16.398Z,6.10
2023-02-24T10:42:32.172Z,6.20
2023-02-24T10:57:42.621Z,3.30
2023-02-24T11:13:10.232Z,9.60
2023-02-24T11:28:34.137Z,8.13
2023-02-24T11:43:40.551Z,7.20
2023-02-24T11:58:50.930Z,3.40
2023-02-24T12:14:15.970Z,6.47
2023-02-24T12:29:18.807Z,9.20
2023-02-24T12:44:34.516Z,5.90
2023-02-24T12:59:39.803Z,5.13
2023-02-24T13:14:43.432Z,5.43
2023-02-24T13:29:46.605Z,7.03
2023-02-24T13:45:07.658Z,7.83
2023-02-24T14:00:26.700Z,12.20
2023-02-24T14:15:29.226Z,5.20
2023-02-24T14:30:41.707Z,7.07
2023-02-24T14:45:52.642Z,7.23
2023-02-24T15:01:03.134Z,6.23
2023-02-24T15:16:23.720Z,5.43
2023-02-24T15:31:26.416Z,9.60
2023-02-24T15:46:34.688Z,5.90
2023-02-24T16:01:36.550Z,5.83
2023-02-24T16:16:38.569Z,7.60
2023-02-24T16:31:40.758Z,6.90
2023-02-24T16:46:45.526Z,4.77
2023-02-24T17:01:47.594Z,12.33
2023-02-24T17:16:49.563Z,8.03
2023-02-24T17:31:51.642Z,8.13
2023-02-24T17:46:54.024Z,19.43
2023-02-24T18:01:55.961Z,12.80
2023-02-24T18:16:57.834Z,11.17
2023-02-24T18:31:59.984Z,11.23
2023-02-24T18:47:02.804Z,13.67
2023-02-24T19:02:04.960Z,17.00
2023-02-24T19:17:06.855Z,14.33
2023-02-24T19:32:08.825Z,20.53
2023-02-24T19:47:11.439Z,23.23
2023-02-24T20:02:13.271Z,20.93
2023-02-24T20:17:15.348Z,18.73
2023-02-24T20:32:17.466Z,15.50
2023-02-24T20:47:19.570Z,13.57
2023-02-24T21:02:21.408Z,15.63
2023-02-24T21:17:25.511Z,15.50
2023-02-24T21:32:27.911Z,17.30
2023-02-24T21:47:33.224Z,11.80
2023-02-24T22:02:35.063Z,15.20
2023-02-24T22:17:37.919Z,21.37
2023-02-24T22:32:40.871Z,11.37
2023-02-24T22:47:43.810Z,13.43
2023-02-24T23:02:47.158Z,13.33
2023-02-24T23:17:53.136Z,11.63
2023-02-24T23:32:55.167Z,21.10
2023-02-24T23:47:58.482Z,11.20
